Hlavní strana
METAR-TAF:

METAR-TAF

Letiště :

Stokmarknes, Norsko

zeměpisná šířka: 68-35N, zeměpisná délka: 015-01E, výška: 0 m

Aktuální stav počasí

Zpráva byla vytvořena před 15 minutami, v 09:20 UTC
Západoseverozápadní vítr 5 kt
Teplota -3°C
Vlhkost vzduchu 100%
Tlak 1014 hPa
Viditelnost: 1500 m
sněhové přeháňky

METAR: ENSK 040920Z 30005KT 1500 SHSN VV008 M03/M03 Q1014

Čas: 10:35 (09:35 UTC)


TAF: chybějící

Stav a předpovědi počasí z více než 4 000 letišť (zprávy METAR a TAF).

Červené a žluté tečky na mapě představují dostupné meteorologické stanice.

Když kurzor umístíte na tečku, zobrazí se název stanice.

Pak kliknutím zobrazíte stav a předpověď počasí.

Chcete-li změnit mapu, kliknutím na zelené tlačítko se znaménkem +mapu přiblížíte, kliknutím na zelené tlačítko se znaménkem – mapu oddálíte a kliknutím na zelené šipky přejdete na sousední mapy.


METAR-TAF: